createdAt,value
2019-05-30T00:00:44.099Z,20.7
2019-05-30T00:05:44.075Z,20.6
2019-05-30T00:10:44.071Z,20.6
2019-05-30T00:15:44.043Z,20.5
2019-05-30T00:20:44.066Z,20.5
2019-05-30T00:25:44.064Z,20.3
2019-05-30T00:30:44.045Z,20.6
2019-05-30T00:35:44.076Z,20.6
2019-05-30T00:40:44.104Z,20.5
2019-05-30T00:45:44.046Z,20.5
2019-05-30T00:50:43.992Z,20.5
2019-05-30T00:55:44.124Z,20.7
2019-05-30T01:00:58.721Z,20.6
2019-05-30T01:05:44.070Z,20.3
2019-05-30T01:10:44.036Z,20.3
2019-05-30T01:15:44.034Z,20.5
2019-05-30T01:20:44.730Z,20.3
2019-05-30T01:25:44.039Z,20
2019-05-30T01:30:58.815Z,20.4
2019-05-30T01:35:44.012Z,19.5
2019-05-30T01:40:44.096Z,19.3
2019-05-30T01:45:44.047Z,19.9
2019-05-30T01:50:43.949Z,20.1
2019-05-30T01:55:43.980Z,20.5
2019-05-30T02:00:43.995Z,20.1
2019-05-30T02:05:43.987Z,20.1
2019-05-30T02:10:44.574Z,19.5
2019-05-30T02:15:43.999Z,20
2019-05-30T02:20:44.030Z,19.9
2019-05-30T02:25:44.006Z,20.2
2019-05-30T02:30:44.019Z,20.4
2019-05-30T02:35:43.969Z,20.3
2019-05-30T02:40:43.968Z,20.5
2019-05-30T02:45:43.963Z,20.8
2019-05-30T02:50:44.107Z,20.9
2019-05-30T02:55:44.290Z,21.1
2019-05-30T03:00:44.094Z,20.8
2019-05-30T03:05:43.993Z,21.5
2019-05-30T03:10:44.043Z,21.1
2019-05-30T03:15:44.083Z,20.7
2019-05-30T03:20:44.377Z,20.9
2019-05-30T03:25:43.967Z,20.5
2019-05-30T03:30:46.232Z,21
2019-05-30T03:35:56.527Z,21.5
2019-05-30T03:40:46.395Z,20.9
2019-05-30T03:45:45.836Z,21.8
2019-05-30T03:50:51.186Z,21.2
2019-05-30T03:55:50.171Z,21.8
2019-05-30T04:00:52.177Z,22.3
2019-05-30T04:06:01.843Z,22.8
2019-05-30T04:10:50.010Z,22.1
2019-05-30T04:15:43.961Z,22.6
2019-05-30T04:20:43.857Z,22
2019-05-30T04:25:43.897Z,21.2
2019-05-30T04:30:43.883Z,21.5
2019-05-30T04:35:43.840Z,21.5
2019-05-30T04:40:44.046Z,21.6
2019-05-30T04:45:44.183Z,21.9
2019-05-30T04:50:43.838Z,21.9
2019-05-30T04:55:43.830Z,21.6
2019-05-30T05:00:43.825Z,22.2
2019-05-30T05:05:43.798Z,22.4
2019-05-30T05:10:43.983Z,22.6
2019-05-30T05:15:43.836Z,22.3
2019-05-30T05:20:46.625Z,22.3
2019-05-30T05:25:57.727Z,22.6
2019-05-30T05:30:44.915Z,23
2019-05-30T05:35:43.816Z,22.5
2019-05-30T05:40:43.991Z,22.9
2019-05-30T05:45:43.891Z,22.8
2019-05-30T05:50:47.959Z,23.2
2019-05-30T05:55:43.775Z,23.4
2019-05-30T06:00:44.550Z,23.3
2019-05-30T06:05:58.958Z,23.9
2019-05-30T06:10:44.860Z,24.3
2019-05-30T06:15:44.576Z,23.9
2019-05-30T06:20:44.540Z,24.3
2019-05-30T06:25:47.355Z,24.5
2019-05-30T06:30:44.488Z,23.8
2019-05-30T06:35:44.555Z,24.6
2019-05-30T06:40:46.584Z,24.3
2019-05-30T06:45:44.861Z,24.7
2019-05-30T06:50:45.422Z,24.8
2019-05-30T06:55:45.850Z,24.8
2019-05-30T07:00:45.491Z,25
2019-05-30T07:05:50.449Z,25.6
2019-05-30T07:10:45.647Z,26.6
2019-05-30T07:15:46.902Z,25.1
2019-05-30T07:20:44.460Z,23.8
2019-05-30T07:25:44.620Z,24.4
2019-05-30T07:30:44.646Z,24
2019-05-30T07:35:44.581Z,24.5
2019-05-30T07:40:45.340Z,24.4
2019-05-30T07:45:56.446Z,25.2
2019-05-30T07:50:45.189Z,25.4
2019-05-30T07:55:46.323Z,24
2019-05-30T08:00:46.118Z,24.5
2019-05-30T08:05:45.347Z,25.2
2019-05-30T08:10:44.669Z,24.8
2019-05-30T08:15:53.333Z,24.2
2019-05-30T08:20:44.439Z,25
2019-05-30T08:25:45.009Z,25.4
2019-05-30T08:30:45.131Z,25.2
2019-05-30T08:36:05.464Z,26.2
2019-05-30T08:40:46.203Z,26
2019-05-30T08:45:44.525Z,25.2
2019-05-30T08:50:51.235Z,25.2
2019-05-30T08:55:44.981Z,25.8
2019-05-30T09:00:44.403Z,25.5
2019-05-30T09:05:58.972Z,25.4
2019-05-30T09:10:48.962Z,25.5
2019-05-30T09:15:47.668Z,25.2
2019-05-30T09:20:49.619Z,25.1
2019-05-30T09:25:49.333Z,25.4
2019-05-30T09:30:46.513Z,25.3
2019-05-30T09:35:47.037Z,25.1
2019-05-30T09:40:47.614Z,24.8
2019-05-30T09:45:44.391Z,25.9
2019-05-30T09:50:45.186Z,25
2019-05-30T09:55:44.524Z,26.1
2019-05-30T10:05:45.073Z,27.7
2019-05-30T10:10:45.664Z,26.1
2019-05-30T10:15:45.636Z,25.8
2019-05-30T10:20:45.794Z,26.2
2019-05-30T10:25:44.915Z,25.6
2019-05-30T10:30:45.029Z,26.7
2019-05-30T10:35:46.045Z,27.2
2019-05-30T10:41:02.903Z,27
2019-05-30T10:45:57.594Z,28.9
2019-05-30T10:50:56.690Z,27.5
2019-05-30T10:55:56.558Z,26
2019-05-30T11:00:58.265Z,25.8
2019-05-30T11:06:10.595Z,26.6
2019-05-30T11:10:54.891Z,25.9
2019-05-30T11:15:57.996Z,26.6
2019-05-30T11:20:54.351Z,25.9
2019-05-30T11:25:54.890Z,27.5
2019-05-30T11:30:54.912Z,27.6
2019-05-30T11:35:55.194Z,25.8
2019-05-30T11:40:53.874Z,26
2019-05-30T11:45:53.837Z,27.2
2019-05-30T11:50:53.851Z,27.7
2019-05-30T11:55:54.189Z,29.6
2019-05-30T12:00:54.655Z,28.1
2019-05-30T12:05:55.130Z,26.1
2019-05-30T12:10:54.965Z,25.3
2019-05-30T12:15:55.300Z,24.8
2019-05-30T12:20:55.782Z,25.6
2019-05-30T12:25:53.997Z,26.2
2019-05-30T12:31:17.238Z,26.2
2019-05-30T12:35:54.389Z,27.4
2019-05-30T12:40:54.687Z,28.6
2019-05-30T12:45:54.834Z,28.1
2019-05-30T12:50:53.755Z,28.3
2019-05-30T12:55:54.289Z,27.2
2019-05-30T13:00:54.593Z,25.6
2019-05-30T13:05:55.017Z,27.9
2019-05-30T13:10:55.100Z,28.7
2019-05-30T13:15:54.540Z,29.1
2019-05-30T13:20:53.878Z,27.5
2019-05-30T13:25:53.783Z,29.1
2019-05-30T13:30:53.838Z,28.7
2019-05-30T13:35:53.808Z,27
2019-05-30T13:40:53.793Z,27.4
2019-05-30T13:45:53.773Z,26
2019-05-30T13:50:53.725Z,26.4
2019-05-30T13:55:53.755Z,27.3
2019-05-30T14:00:53.730Z,26
2019-05-30T14:05:53.834Z,25.4
2019-05-30T14:10:57.889Z,26
2019-05-30T14:15:53.823Z,25.9
2019-05-30T14:20:53.762Z,26.1
2019-05-30T14:25:53.755Z,25.3
2019-05-30T14:30:53.693Z,25.8
2019-05-30T14:35:53.712Z,26.1
2019-05-30T14:40:53.666Z,26
2019-05-30T14:45:53.676Z,25.5
2019-05-30T14:50:53.723Z,25.6
2019-05-30T14:55:53.696Z,25.2
2019-05-30T15:00:53.696Z,25.7
2019-05-30T15:05:53.717Z,26
2019-05-30T15:10:53.697Z,26
2019-05-30T15:15:56.804Z,25.4
2019-05-30T15:20:53.691Z,25.2
2019-05-30T15:25:53.679Z,25.6
2019-05-30T15:30:53.720Z,25.9
2019-05-30T15:35:53.684Z,25.9
2019-05-30T15:40:53.702Z,25.2
2019-05-30T15:45:53.648Z,25.2
2019-05-30T15:50:53.648Z,25.8
2019-05-30T15:55:53.671Z,25.3
2019-05-30T16:00:53.693Z,25.1
2019-05-30T16:05:54.788Z,24.7
2019-05-30T16:10:59.966Z,24.9
2019-05-30T16:16:00.251Z,24.9
2019-05-30T16:20:59.912Z,24.7
2019-05-30T16:25:59.933Z,24.7
2019-05-30T16:30:59.950Z,24.3
2019-05-30T16:35:59.953Z,23.7
2019-05-30T16:41:00.081Z,23.9
2019-05-30T16:46:00.119Z,23.7
2019-05-30T16:50:59.920Z,23.7
2019-05-30T16:55:59.980Z,23.6
2019-05-30T17:01:01.134Z,23.4
2019-05-30T17:06:01.926Z,23.2
2019-05-30T17:10:59.928Z,23.1
2019-05-30T17:15:59.906Z,22.9
2019-05-30T17:20:59.947Z,23.2
2019-05-30T17:25:59.940Z,22.7
2019-05-30T17:30:59.943Z,22.8
2019-05-30T17:35:59.961Z,22.8
2019-05-30T17:41:04.064Z,23
2019-05-30T17:45:59.977Z,22.5
2019-05-30T17:50:59.898Z,22.4
2019-05-30T17:55:59.878Z,22.6
2019-05-30T18:01:03.280Z,22.5
2019-05-30T18:05:59.862Z,22.4
2019-05-30T18:11:08.317Z,22.5
2019-05-30T18:15:59.817Z,22.5
2019-05-30T18:21:03.097Z,22.4
2019-05-30T18:25:59.870Z,22.1
2019-05-30T18:30:59.875Z,21.9
2019-05-30T18:35:59.849Z,21.7
2019-05-30T18:41:16.760Z,21.8
2019-05-30T18:45:59.860Z,21.6
2019-05-30T18:50:59.844Z,21.6
2019-05-30T18:55:59.802Z,21.6
2019-05-30T19:00:59.798Z,21.7
2019-05-30T19:06:02.938Z,21.7
2019-05-30T19:10:59.849Z,21.6
2019-05-30T19:15:59.823Z,21.1
2019-05-30T19:20:59.842Z,21
2019-05-30T19:26:00.901Z,21.3
2019-05-30T19:30:59.941Z,21
2019-05-30T19:36:02.133Z,21.2
2019-05-30T19:40:59.856Z,21
2019-05-30T19:45:59.835Z,21.1
2019-05-30T19:50:59.760Z,21.1
2019-05-30T19:55:59.790Z,21.1
2019-05-30T20:01:12.844Z,21.2
2019-05-30T20:05:59.818Z,20.9
2019-05-30T20:10:59.744Z,21
2019-05-30T20:15:59.750Z,21
2019-05-30T20:21:11.700Z,20.8
2019-05-30T20:26:00.583Z,20.5
2019-05-30T20:30:59.712Z,20.6
2019-05-30T20:35:59.719Z,20.8
2019-05-30T20:40:59.791Z,20.4
2019-05-30T20:46:03.334Z,20.2
2019-05-30T20:50:59.872Z,20.3
2019-05-30T20:55:59.919Z,20.5
2019-05-30T21:01:00.312Z,20
2019-05-30T21:06:00.923Z,20.1
2019-05-30T21:11:00.958Z,20.1
2019-05-30T21:16:02.293Z,19.8
2019-05-30T21:21:00.790Z,20.1
2019-05-30T21:25:59.986Z,20.2
2019-05-30T21:30:59.989Z,19.9
2019-05-30T21:36:00.776Z,19.9
2019-05-30T21:41:01.187Z,20.2
2019-05-30T21:45:59.756Z,20
2019-05-30T21:51:02.661Z,19.8
2019-05-30T21:56:00.630Z,19.7
2019-05-30T22:01:34.422Z,19.7
2019-05-30T22:06:04.541Z,19.7
2019-05-30T22:11:00.170Z,19.8
2019-05-30T22:16:00.771Z,19.9
2019-05-30T22:21:00.507Z,19.5
2019-05-30T22:26:01.420Z,19.4
2019-05-30T22:31:01.253Z,19.3
2019-05-30T22:35:59.683Z,19.3
2019-05-30T22:41:00.729Z,19.4
2019-05-30T22:46:00.850Z,19.4
2019-05-30T22:50:59.676Z,19.4
2019-05-30T22:56:03.751Z,20
2019-05-30T23:01:00.596Z,19.5
2019-05-30T23:05:59.932Z,19
2019-05-30T23:11:00.148Z,18.7
2019-05-30T23:16:01.168Z,19
2019-05-30T23:26:01.779Z,18.6
2019-05-30T23:31:00.357Z,18.5
2019-05-30T23:36:00.945Z,19
2019-05-30T23:41:01.511Z,18.7
2019-05-30T23:46:02.095Z,18.4
2019-05-30T23:51:00.263Z,19
2019-05-30T23:56:00.729Z,18.8
